CWNK1: Cowskin Creek at 29th N. Wichita, KS

Data processed at Wed May 22 2019 23:50


All information presented herein is the property of the government of the United States of America and may be revised or deleted at any time without prior notice.
Dissemination of this information without the expressed written consent of the Public Affairs Office, Tulsa District U.S. Army Corps of Engineers is strictly prohibited.
These data are gathered electronically and, as presented, have not undergone any form of quality control. These data are not guaranteed to be valid or correct.
Go to home page.
Go to station list.
Go to home page.

Downstream station:


Previous Day
Next Day
Current Day
    
SHEF ID:       CWNK1     COWSKIN C AT 29TH ST NORTH OF WI
STATION TYPE:  

               PRECIP     STAGE  STAGE(2)  RIV-FLOW  BAT-LOAD
                   in        ft        ft       cfs      volt
              Ccp-Rev   Ccp-Rev   Ccp-Rev   Ccp-Rev   Ccp-Rev
(US/Central)
05/22 00:00      0.00     17.84      ----       705     12.89
05/22 01:00      0.00     17.83      ----       702     12.89
05/22 02:00      0.00     17.85      ----       709     12.89
05/22 03:00      0.00     17.81      ----       695     12.89
05/22 04:00      0.00     17.70      ----       660     12.83
05/22 05:00      0.00     17.70      ----       660     12.83
05/22 06:00      0.00     17.66      ----       647     12.77
05/22 07:00      0.00     17.65      ----       644     12.77
05/22 08:00      0.00     17.62      ----       635     12.77
05/22 09:00      0.00     17.61      ----       632     12.89
05/22 10:00      0.00     17.55      ----       614     13.77
05/22 11:00      0.00     17.54      ----       611     13.42
05/22 12:00      0.00     17.52      ----       605     13.71
05/22 13:00      0.00     17.51      ----       602     13.77
05/22 14:00      0.00     17.51      ----       602     13.77
05/22 15:00      0.00     17.50      ----       599     13.36
05/22 16:00      0.00     17.46      ----       587     13.36
05/22 17:00      0.00     17.46      ----       587     13.53
05/22 18:00      0.00     17.43      ----       579     13.83
05/22 19:00      0.00     17.43      ----       579     13.59
05/22 20:00      0.00     17.41      ----       573     13.24
05/22 21:00      0.00     17.39      ----       568     13.12
05/22 22:00      0.00     17.37      ----       562     13.07
05/22 23:00      0.00     17.36      ----       559     13.07